sensor_id;sensor_type;location;lat;lon;timestamp;P1;durP1;ratioP1;P2;durP2;ratioP2
67092;SDS011;54011;50.772;7.730;2023-07-29T00:00:47;3.67;;;1.77;;
67092;SDS011;54011;50.772;7.730;2023-07-29T00:03:13;3.60;;;1.70;;
67092;SDS011;54011;50.772;7.730;2023-07-29T00:05:42;4.20;;;1.50;;
67092;SDS011;54011;50.772;7.730;2023-07-29T00:08:08;4.60;;;1.60;;
67092;SDS011;54011;50.772;7.730;2023-07-29T00:11:00;5.13;;;1.70;;
67092;SDS011;54011;50.772;7.730;2023-07-29T00:13:27;4.47;;;1.50;;
67092;SDS011;54011;50.772;7.730;2023-07-29T00:15:53;4.28;;;1.50;;
67092;SDS011;54011;50.772;7.730;2023-07-29T00:18:21;3.38;;;1.45;;
67092;SDS011;54011;50.772;7.730;2023-07-29T00:20:47;8.52;;;1.60;;
67092;SDS011;54011;50.772;7.730;2023-07-29T00:23:13;2.83;;;1.30;;
67092;SDS011;54011;50.772;7.730;2023-07-29T00:25:38;4.03;;;1.35;;
67092;SDS011;54011;50.772;7.730;2023-07-29T00:28:05;3.55;;;1.38;;
67092;SDS011;54011;50.772;7.730;2023-07-29T00:30:31;7.00;;;1.38;;
67092;SDS011;54011;50.772;7.730;2023-07-29T00:32:57;4.32;;;1.30;;
67092;SDS011;54011;50.772;7.730;2023-07-29T00:35:23;3.50;;;1.25;;
67092;SDS011;54011;50.772;7.730;2023-07-29T00:37:49;3.33;;;1.23;;
67092;SDS011;54011;50.772;7.730;2023-07-29T00:40:16;4.07;;;1.30;;
67092;SDS011;54011;50.772;7.730;2023-07-29T00:42:47;2.28;;;1.13;;
67092;SDS011;54011;50.772;7.730;2023-07-29T00:45:14;3.25;;;1.20;;
67092;SDS011;54011;50.772;7.730;2023-07-29T00:47:42;5.32;;;1.45;;
67092;SDS011;54011;50.772;7.730;2023-07-29T00:50:12;2.40;;;1.30;;
67092;SDS011;54011;50.772;7.730;2023-07-29T00:52:40;2.33;;;1.20;;
67092;SDS011;54011;50.772;7.730;2023-07-29T00:55:06;4.65;;;1.27;;
67092;SDS011;54011;50.772;7.730;2023-07-29T00:57:35;3.00;;;1.40;;
67092;SDS011;54011;50.772;7.730;2023-07-29T01:00:03;6.75;;;1.60;;
67092;SDS011;54011;50.772;7.730;2023-07-29T01:02:30;5.47;;;1.60;;
67092;SDS011;54011;50.772;7.730;2023-07-29T01:04:58;3.03;;;1.40;;
67092;SDS011;54011;50.772;7.730;2023-07-29T01:07:47;3.45;;;1.20;;
67092;SDS011;54011;50.772;7.730;2023-07-29T01:10:27;3.85;;;1.33;;
67092;SDS011;54011;50.772;7.730;2023-07-29T01:13:10;5.10;;;1.50;;
67092;SDS011;54011;50.772;7.730;2023-07-29T01:15:54;5.63;;;1.45;;
67092;SDS011;54011;50.772;7.730;2023-07-29T01:18:25;4.22;;;1.40;;
67092;SDS011;54011;50.772;7.730;2023-07-29T01:20:53;3.67;;;1.40;;
67092;SDS011;54011;50.772;7.730;2023-07-29T01:23:23;2.97;;;1.25;;
67092;SDS011;54011;50.772;7.730;2023-07-29T01:25:51;2.85;;;1.40;;
67092;SDS011;54011;50.772;7.730;2023-07-29T01:28:17;4.38;;;1.38;;
67092;SDS011;54011;50.772;7.730;2023-07-29T01:30:43;2.95;;;1.30;;
67092;SDS011;54011;50.772;7.730;2023-07-29T01:33:35;4.82;;;1.35;;
67092;SDS011;54011;50.772;7.730;2023-07-29T01:36:05;4.22;;;1.40;;
67092;SDS011;54011;50.772;7.730;2023-07-29T01:38:40;5.07;;;1.50;;
67092;SDS011;54011;50.772;7.730;2023-07-29T01:41:08;5.95;;;1.30;;
67092;SDS011;54011;50.772;7.730;2023-07-29T01:43:35;4.07;;;1.40;;
67092;SDS011;54011;50.772;7.730;2023-07-29T01:46:08;4.03;;;1.50;;
67092;SDS011;54011;50.772;7.730;2023-07-29T01:48:38;2.80;;;1.10;;
67092;SDS011;54011;50.772;7.730;2023-07-29T01:51:04;4.60;;;1.40;;
67092;SDS011;54011;50.772;7.730;2023-07-29T01:53:30;2.60;;;1.23;;
67092;SDS011;54011;50.772;7.730;2023-07-29T01:55:55;3.08;;;1.40;;
67092;SDS011;54011;50.772;7.730;2023-07-29T01:58:22;3.13;;;1.20;;
67092;SDS011;54011;50.772;7.730;2023-07-29T02:00:49;2.60;;;1.30;;
67092;SDS011;54011;50.772;7.730;2023-07-29T02:03:16;2.80;;;1.20;;
67092;SDS011;54011;50.772;7.730;2023-07-29T02:05:41;3.63;;;1.20;;
67092;SDS011;54011;50.772;7.730;2023-07-29T02:08:09;5.05;;;1.50;;
67092;SDS011;54011;50.772;7.730;2023-07-29T02:10:37;3.65;;;1.60;;
67092;SDS011;54011;50.772;7.730;2023-07-29T02:13:03;4.40;;;1.30;;
67092;SDS011;54011;50.772;7.730;2023-07-29T02:15:29;4.10;;;1.50;;
67092;SDS011;54011;50.772;7.730;2023-07-29T02:17:55;3.50;;;1.52;;
67092;SDS011;54011;50.772;7.730;2023-07-29T02:20:21;2.72;;;1.27;;
67092;SDS011;54011;50.772;7.730;2023-07-29T02:22:49;6.18;;;1.48;;
67092;SDS011;54011;50.772;7.730;2023-07-29T02:25:16;4.65;;;1.42;;
67092;SDS011;54011;50.772;7.730;2023-07-29T02:27:41;2.17;;;0.98;;
67092;SDS011;54011;50.772;7.730;2023-07-29T02:30:07;6.35;;;1.63;;
67092;SDS011;54011;50.772;7.730;2023-07-29T02:32:36;3.08;;;1.40;;
67092;SDS011;54011;50.772;7.730;2023-07-29T02:35:02;5.53;;;1.33;;
67092;SDS011;54011;50.772;7.730;2023-07-29T02:37:28;5.28;;;1.55;;
67092;SDS011;54011;50.772;7.730;2023-07-29T02:39:53;4.47;;;1.70;;
67092;SDS011;54011;50.772;7.730;2023-07-29T02:42:19;4.68;;;1.40;;
67092;SDS011;54011;50.772;7.730;2023-07-29T02:44:45;8.57;;;1.50;;
67092;SDS011;54011;50.772;7.730;2023-07-29T02:47:10;3.67;;;1.42;;
67092;SDS011;54011;50.772;7.730;2023-07-29T02:49:37;5.32;;;1.40;;
67092;SDS011;54011;50.772;7.730;2023-07-29T02:52:03;5.00;;;1.60;;
67092;SDS011;54011;50.772;7.730;2023-07-29T02:54:29;3.22;;;1.40;;
67092;SDS011;54011;50.772;7.730;2023-07-29T02:56:54;3.55;;;1.42;;
67092;SDS011;54011;50.772;7.730;2023-07-29T02:59:21;5.72;;;1.60;;
67092;SDS011;54011;50.772;7.730;2023-07-29T03:01:46;2.72;;;1.38;;
67092;SDS011;54011;50.772;7.730;2023-07-29T03:04:12;4.63;;;1.60;;
67092;SDS011;54011;50.772;7.730;2023-07-29T03:06:38;2.83;;;1.30;;
67092;SDS011;54011;50.772;7.730;2023-07-29T03:09:04;2.67;;;1.33;;
67092;SDS011;54011;50.772;7.730;2023-07-29T03:11:30;6.35;;;1.52;;
67092;SDS011;54011;50.772;7.730;2023-07-29T03:13:57;4.07;;;1.75;;
67092;SDS011;54011;50.772;7.730;2023-07-29T03:16:25;5.18;;;1.48;;
67092;SDS011;54011;50.772;7.730;2023-07-29T03:18:54;3.47;;;1.55;;
67092;SDS011;54011;50.772;7.730;2023-07-29T03:21:19;3.92;;;1.60;;
67092;SDS011;54011;50.772;7.730;2023-07-29T03:23:45;3.10;;;1.60;;
67092;SDS011;54011;50.772;7.730;2023-07-29T03:26:12;3.50;;;1.50;;
67092;SDS011;54011;50.772;7.730;2023-07-29T03:28:39;3.63;;;1.60;;
67092;SDS011;54011;50.772;7.730;2023-07-29T03:31:05;5.28;;;1.70;;
67092;SDS011;54011;50.772;7.730;2023-07-29T03:33:32;5.53;;;1.95;;
67092;SDS011;54011;50.772;7.730;2023-07-29T03:35:58;2.88;;;1.58;;
67092;SDS011;54011;50.772;7.730;2023-07-29T03:38:23;4.43;;;1.63;;
67092;SDS011;54011;50.772;7.730;2023-07-29T03:40:49;3.28;;;1.50;;
67092;SDS011;54011;50.772;7.730;2023-07-29T03:43:15;4.45;;;1.90;;
67092;SDS011;54011;50.772;7.730;2023-07-29T03:45:42;3.60;;;1.83;;
67092;SDS011;54011;50.772;7.730;2023-07-29T03:48:08;3.70;;;1.80;;
67092;SDS011;54011;50.772;7.730;2023-07-29T03:50:34;4.53;;;1.88;;
67092;SDS011;54011;50.772;7.730;2023-07-29T03:53:02;5.28;;;1.90;;
67092;SDS011;54011;50.772;7.730;2023-07-29T03:55:28;5.22;;;1.80;;
67092;SDS011;54011;50.772;7.730;2023-07-29T03:57:57;6.78;;;2.00;;
67092;SDS011;54011;50.772;7.730;2023-07-29T04:00:26;3.95;;;2.10;;
67092;SDS011;54011;50.772;7.730;2023-07-29T04:02:53;3.85;;;1.73;;
67092;SDS011;54011;50.772;7.730;2023-07-29T04:05:19;8.65;;;2.25;;
67092;SDS011;54011;50.772;7.730;2023-07-29T04:07:44;4.53;;;1.80;;
67092;SDS011;54011;50.772;7.730;2023-07-29T04:10:11;4.90;;;1.90;;
67092;SDS011;54011;50.772;7.730;2023-07-29T04:12:38;3.80;;;1.77;;
67092;SDS011;54011;50.772;7.730;2023-07-29T04:15:05;4.30;;;1.90;;
67092;SDS011;54011;50.772;7.730;2023-07-29T04:17:31;5.57;;;1.80;;
67092;SDS011;54011;50.772;7.730;2023-07-29T04:19:56;4.70;;;2.00;;
67092;SDS011;54011;50.772;7.730;2023-07-29T04:22:27;4.45;;;1.75;;
67092;SDS011;54011;50.772;7.730;2023-07-29T04:24:53;6.53;;;2.35;;
67092;SDS011;54011;50.772;7.730;2023-07-29T04:27:19;3.70;;;1.77;;
67092;SDS011;54011;50.772;7.730;2023-07-29T04:29:44;7.32;;;2.20;;
67092;SDS011;54011;50.772;7.730;2023-07-29T04:32:10;5.05;;;2.10;;
67092;SDS011;54011;50.772;7.730;2023-07-29T04:34:37;7.53;;;2.15;;
67092;SDS011;54011;50.772;7.730;2023-07-29T04:37:02;6.32;;;2.35;;
67092;SDS011;54011;50.772;7.730;2023-07-29T04:39:28;4.38;;;1.75;;
67092;SDS011;54011;50.772;7.730;2023-07-29T04:41:53;3.40;;;2.00;;
67092;SDS011;54011;50.772;7.730;2023-07-29T04:44:19;4.03;;;2.10;;
67092;SDS011;54011;50.772;7.730;2023-07-29T04:46:45;3.78;;;1.90;;
67092;SDS011;54011;50.772;7.730;2023-07-29T04:49:11;5.00;;;2.25;;
67092;SDS011;54011;50.772;7.730;2023-07-29T04:51:37;4.10;;;2.05;;
67092;SDS011;54011;50.772;7.730;2023-07-29T04:54:03;6.35;;;2.30;;
67092;SDS011;54011;50.772;7.730;2023-07-29T04:56:29;6.13;;;2.08;;
67092;SDS011;54011;50.772;7.730;2023-07-29T04:58:56;3.60;;;1.70;;
67092;SDS011;54011;50.772;7.730;2023-07-29T05:01:21;5.10;;;1.90;;
67092;SDS011;54011;50.772;7.730;2023-07-29T05:03:48;4.45;;;1.60;;
67092;SDS011;54011;50.772;7.730;2023-07-29T05:06:13;2.85;;;1.30;;
67092;SDS011;54011;50.772;7.730;2023-07-29T05:08:38;3.33;;;1.70;;
67092;SDS011;54011;50.772;7.730;2023-07-29T05:11:04;3.05;;;1.38;;
67092;SDS011;54011;50.772;7.730;2023-07-29T05:13:30;4.13;;;1.52;;
67092;SDS011;54011;50.772;7.730;2023-07-29T05:15:55;3.72;;;1.85;;
67092;SDS011;54011;50.772;7.730;2023-07-29T05:18:22;4.18;;;1.55;;
67092;SDS011;54011;50.772;7.730;2023-07-29T05:20:48;5.28;;;1.80;;
67092;SDS011;54011;50.772;7.730;2023-07-29T05:23:15;3.92;;;1.60;;
67092;SDS011;54011;50.772;7.730;2023-07-29T05:25:42;4.82;;;1.58;;
67092;SDS011;54011;50.772;7.730;2023-07-29T05:28:08;4.80;;;1.70;;
67092;SDS011;54011;50.772;7.730;2023-07-29T05:30:33;3.88;;;1.80;;
67092;SDS011;54011;50.772;7.730;2023-07-29T05:33:03;4.00;;;1.58;;
67092;SDS011;54011;50.772;7.730;2023-07-29T05:35:30;4.30;;;1.80;;
67092;SDS011;54011;50.772;7.730;2023-07-29T05:37:56;3.20;;;1.67;;
67092;SDS011;54011;50.772;7.730;2023-07-29T05:40:21;6.68;;;1.90;;
67092;SDS011;54011;50.772;7.730;2023-07-29T05:42:48;3.28;;;1.80;;
67092;SDS011;54011;50.772;7.730;2023-07-29T05:45:13;3.90;;;2.03;;
67092;SDS011;54011;50.772;7.730;2023-07-29T05:47:39;3.88;;;2.10;;
67092;SDS011;54011;50.772;7.730;2023-07-29T05:50:04;6.38;;;2.00;;
67092;SDS011;54011;50.772;7.730;2023-07-29T05:52:31;5.55;;;2.80;;
67092;SDS011;54011;50.772;7.730;2023-07-29T05:54:57;3.58;;;2.10;;
67092;SDS011;54011;50.772;7.730;2023-07-29T05:57:24;9.63;;;2.40;;
67092;SDS011;54011;50.772;7.730;2023-07-29T05:59:49;6.05;;;2.35;;
67092;SDS011;54011;50.772;7.730;2023-07-29T06:02:15;3.92;;;2.15;;
67092;SDS011;54011;50.772;7.730;2023-07-29T06:04:41;3.42;;;1.80;;
67092;SDS011;54011;50.772;7.730;2023-07-29T06:07:06;3.17;;;1.98;;
67092;SDS011;54011;50.772;7.730;2023-07-29T06:09:32;6.30;;;2.30;;
67092;SDS011;54011;50.772;7.730;2023-07-29T06:11:58;6.05;;;2.55;;
67092;SDS011;54011;50.772;7.730;2023-07-29T06:14:24;3.85;;;2.30;;
67092;SDS011;54011;50.772;7.730;2023-07-29T06:16:50;6.88;;;2.80;;
67092;SDS011;54011;50.772;7.730;2023-07-29T06:19:16;6.20;;;2.80;;
67092;SDS011;54011;50.772;7.730;2023-07-29T06:21:42;3.92;;;2.17;;
67092;SDS011;54011;50.772;7.730;2023-07-29T06:24:08;5.20;;;1.90;;
67092;SDS011;54011;50.772;7.730;2023-07-29T06:26:34;5.45;;;2.13;;
67092;SDS011;54011;50.772;7.730;2023-07-29T06:28:59;4.93;;;1.95;;
67092;SDS011;54011;50.772;7.730;2023-07-29T06:31:28;3.92;;;1.85;;
67092;SDS011;54011;50.772;7.730;2023-07-29T06:33:54;4.20;;;1.85;;
67092;SDS011;54011;50.772;7.730;2023-07-29T06:36:20;4.18;;;1.95;;
67092;SDS011;54011;50.772;7.730;2023-07-29T06:38:45;6.10;;;1.80;;
67092;SDS011;54011;50.772;7.730;2023-07-29T06:41:11;4.65;;;1.90;;
67092;SDS011;54011;50.772;7.730;2023-07-29T06:43:36;4.43;;;2.00;;
67092;SDS011;54011;50.772;7.730;2023-07-29T06:46:02;6.70;;;2.13;;
67092;SDS011;54011;50.772;7.730;2023-07-29T06:48:28;3.63;;;1.83;;
67092;SDS011;54011;50.772;7.730;2023-07-29T06:50:53;6.28;;;2.22;;
67092;SDS011;54011;50.772;7.730;2023-07-29T06:53:21;4.72;;;2.00;;
67092;SDS011;54011;50.772;7.730;2023-07-29T06:55:47;5.13;;;2.20;;
67092;SDS011;54011;50.772;7.730;2023-07-29T06:58:13;5.70;;;2.30;;
67092;SDS011;54011;50.772;7.730;2023-07-29T07:00:39;3.33;;;2.00;;
67092;SDS011;54011;50.772;7.730;2023-07-29T07:03:04;4.45;;;2.53;;
67092;SDS011;54011;50.772;7.730;2023-07-29T07:05:30;4.03;;;2.20;;
67092;SDS011;54011;50.772;7.730;2023-07-29T07:07:56;3.33;;;1.83;;
67092;SDS011;54011;50.772;7.730;2023-07-29T07:10:22;6.18;;;1.65;;
67092;SDS011;54011;50.772;7.730;2023-07-29T07:12:48;6.22;;;1.60;;
67092;SDS011;54011;50.772;7.730;2023-07-29T07:15:13;5.60;;;1.75;;
67092;SDS011;54011;50.772;7.730;2023-07-29T07:17:39;3.33;;;1.52;;
67092;SDS011;54011;50.772;7.730;2023-07-29T07:20:04;4.28;;;1.73;;
67092;SDS011;54011;50.772;7.730;2023-07-29T07:22:30;6.40;;;1.65;;
67092;SDS011;54011;50.772;7.730;2023-07-29T07:24:56;4.38;;;1.70;;
67092;SDS011;54011;50.772;7.730;2023-07-29T07:27:22;3.83;;;1.80;;
67092;SDS011;54011;50.772;7.730;2023-07-29T07:29:47;5.90;;;1.80;;
67092;SDS011;54011;50.772;7.730;2023-07-29T07:32:13;5.00;;;2.15;;
67092;SDS011;54011;50.772;7.730;2023-07-29T07:34:39;3.95;;;1.95;;
67092;SDS011;54011;50.772;7.730;2023-07-29T07:37:05;4.15;;;2.20;;
67092;SDS011;54011;50.772;7.730;2023-07-29T07:39:32;4.85;;;2.78;;
67092;SDS011;54011;50.772;7.730;2023-07-29T07:41:57;7.25;;;2.40;;
67092;SDS011;54011;50.772;7.730;2023-07-29T07:44:23;5.95;;;2.78;;
67092;SDS011;54011;50.772;7.730;2023-07-29T07:46:51;6.10;;;3.38;;
67092;SDS011;54011;50.772;7.730;2023-07-29T07:49:17;5.05;;;2.80;;
67092;SDS011;54011;50.772;7.730;2023-07-29T07:51:45;4.82;;;3.10;;
67092;SDS011;54011;50.772;7.730;2023-07-29T07:54:11;4.82;;;2.92;;
67092;SDS011;54011;50.772;7.730;2023-07-29T07:56:36;4.68;;;3.30;;
67092;SDS011;54011;50.772;7.730;2023-07-29T07:59:03;6.95;;;3.20;;
67092;SDS011;54011;50.772;7.730;2023-07-29T08:01:37;5.72;;;3.45;;
67092;SDS011;54011;50.772;7.730;2023-07-29T08:04:03;7.43;;;3.45;;
67092;SDS011;54011;50.772;7.730;2023-07-29T08:06:29;5.55;;;3.70;;
67092;SDS011;54011;50.772;7.730;2023-07-29T08:08:56;6.65;;;3.40;;
67092;SDS011;54011;50.772;7.730;2023-07-29T08:11:22;6.72;;;4.30;;
67092;SDS011;54011;50.772;7.730;2023-07-29T08:13:50;5.55;;;3.60;;
67092;SDS011;54011;50.772;7.730;2023-07-29T08:16:15;7.15;;;4.03;;
67092;SDS011;54011;50.772;7.730;2023-07-29T08:18:41;7.93;;;4.00;;
67092;SDS011;54011;50.772;7.730;2023-07-29T08:21:06;7.80;;;4.00;;
67092;SDS011;54011;50.772;7.730;2023-07-29T08:23:32;5.05;;;3.63;;
67092;SDS011;54011;50.772;7.730;2023-07-29T08:26:00;4.97;;;3.58;;
67092;SDS011;54011;50.772;7.730;2023-07-29T08:28:27;4.45;;;3.10;;
67092;SDS011;54011;50.772;7.730;2023-07-29T08:30:54;4.60;;;3.33;;
67092;SDS011;54011;50.772;7.730;2023-07-29T08:33:20;7.13;;;3.60;;
67092;SDS011;54011;50.772;7.730;2023-07-29T08:35:45;5.93;;;3.63;;
67092;SDS011;54011;50.772;7.730;2023-07-29T08:38:12;5.90;;;3.65;;
67092;SDS011;54011;50.772;7.730;2023-07-29T08:40:39;6.30;;;3.00;;
67092;SDS011;54011;50.772;7.730;2023-07-29T08:43:10;5.25;;;2.92;;
67092;SDS011;54011;50.772;7.730;2023-07-29T08:45:39;6.25;;;3.13;;
67092;SDS011;54011;50.772;7.730;2023-07-29T08:48:07;6.15;;;2.80;;
67092;SDS011;54011;50.772;7.730;2023-07-29T08:50:36;10.02;;;2.92;;
67092;SDS011;54011;50.772;7.730;2023-07-29T08:53:05;5.65;;;2.80;;
67092;SDS011;54011;50.772;7.730;2023-07-29T08:55:31;4.38;;;2.65;;
67092;SDS011;54011;50.772;7.730;2023-07-29T08:58:00;4.75;;;2.60;;
67092;SDS011;54011;50.772;7.730;2023-07-29T09:00:26;7.47;;;2.45;;
67092;SDS011;54011;50.772;7.730;2023-07-29T09:02:53;5.15;;;2.30;;
67092;SDS011;54011;50.772;7.730;2023-07-29T09:05:20;4.38;;;2.15;;
67092;SDS011;54011;50.772;7.730;2023-07-29T09:07:46;4.25;;;2.30;;
67092;SDS011;54011;50.772;7.730;2023-07-29T09:10:14;4.70;;;1.88;;
67092;SDS011;54011;50.772;7.730;2023-07-29T09:12:40;3.80;;;2.17;;
67092;SDS011;54011;50.772;7.730;2023-07-29T09:15:07;3.65;;;1.92;;
67092;SDS011;54011;50.772;7.730;2023-07-29T09:17:33;3.67;;;1.80;;
67092;SDS011;54011;50.772;7.730;2023-07-29T09:19:59;3.47;;;1.92;;
67092;SDS011;54011;50.772;7.730;2023-07-29T09:22:26;3.78;;;1.75;;
67092;SDS011;54011;50.772;7.730;2023-07-29T09:24:52;2.63;;;1.20;;
67092;SDS011;54011;50.772;7.730;2023-07-29T09:27:27;3.85;;;2.00;;
67092;SDS011;54011;50.772;7.730;2023-07-29T09:29:55;3.78;;;1.40;;
67092;SDS011;54011;50.772;7.730;2023-07-29T09:32:21;2.78;;;1.10;;
67092;SDS011;54011;50.772;7.730;2023-07-29T09:34:48;2.22;;;1.13;;
67092;SDS011;54011;50.772;7.730;2023-07-29T09:37:18;5.07;;;1.58;;
67092;SDS011;54011;50.772;7.730;2023-07-29T09:39:49;3.15;;;1.58;;
67092;SDS011;54011;50.772;7.730;2023-07-29T09:42:19;3.35;;;1.20;;
67092;SDS011;54011;50.772;7.730;2023-07-29T09:44:46;4.00;;;1.50;;
67092;SDS011;54011;50.772;7.730;2023-07-29T09:47:21;3.80;;;1.20;;
67092;SDS011;54011;50.772;7.730;2023-07-29T09:49:48;2.97;;;1.40;;
67092;SDS011;54011;50.772;7.730;2023-07-29T09:52:15;3.83;;;1.48;;
67092;SDS011;54011;50.772;7.730;2023-07-29T09:57:16;3.53;;;1.30;;
67092;SDS011;54011;50.772;7.730;2023-07-29T09:59:42;2.70;;;1.13;;
67092;SDS011;54011;50.772;7.730;2023-07-29T10:02:15;2.67;;;1.10;;
67092;SDS011;54011;50.772;7.730;2023-07-29T10:04:42;3.35;;;1.50;;
67092;SDS011;54011;50.772;7.730;2023-07-29T10:07:11;3.33;;;1.30;;
67092;SDS011;54011;50.772;7.730;2023-07-29T10:09:40;2.97;;;1.33;;
67092;SDS011;54011;50.772;7.730;2023-07-29T10:12:06;3.05;;;1.20;;
67092;SDS011;54011;50.772;7.730;2023-07-29T10:14:32;3.83;;;1.30;;
67092;SDS011;54011;50.772;7.730;2023-07-29T10:16:58;3.83;;;1.48;;
67092;SDS011;54011;50.772;7.730;2023-07-29T10:19:26;3.75;;;1.48;;
67092;SDS011;54011;50.772;7.730;2023-07-29T10:21:53;2.95;;;1.40;;
67092;SDS011;54011;50.772;7.730;2023-07-29T10:24:22;5.05;;;1.70;;
67092;SDS011;54011;50.772;7.730;2023-07-29T10:26:54;6.60;;;1.48;;
67092;SDS011;54011;50.772;7.730;2023-07-29T10:29:28;3.25;;;1.75;;
67092;SDS011;54011;50.772;7.730;2023-07-29T10:32:03;5.05;;;1.58;;
67092;SDS011;54011;50.772;7.730;2023-07-29T10:34:30;3.58;;;1.55;;
67092;SDS011;54011;50.772;7.730;2023-07-29T10:36:57;3.35;;;1.38;;
67092;SDS011;54011;50.772;7.730;2023-07-29T10:39:24;3.97;;;1.52;;
67092;SDS011;54011;50.772;7.730;2023-07-29T10:42:00;4.28;;;1.70;;
67092;SDS011;54011;50.772;7.730;2023-07-29T10:47:13;3.20;;;1.65;;
67092;SDS011;54011;50.772;7.730;2023-07-29T10:49:43;3.92;;;1.73;;
67092;SDS011;54011;50.772;7.730;2023-07-29T10:52:17;4.03;;;1.50;;
67092;SDS011;54011;50.772;7.730;2023-07-29T10:54:55;5.20;;;1.60;;
67092;SDS011;54011;50.772;7.730;2023-07-29T10:57:30;3.17;;;1.70;;
67092;SDS011;54011;50.772;7.730;2023-07-29T10:59:59;5.30;;;1.70;;
67092;SDS011;54011;50.772;7.730;2023-07-29T11:02:44;2.75;;;1.23;;
67092;SDS011;54011;50.772;7.730;2023-07-29T11:05:24;3.30;;;1.40;;
67092;SDS011;54011;50.772;7.730;2023-07-29T11:07:49;3.50;;;1.40;;
67092;SDS011;54011;50.772;7.730;2023-07-29T11:10:15;3.75;;;1.50;;
67092;SDS011;54011;50.772;7.730;2023-07-29T11:15:28;3.10;;;1.35;;
67092;SDS011;54011;50.772;7.730;2023-07-29T11:17:56;3.60;;;1.50;;
67092;SDS011;54011;50.772;7.730;2023-07-29T11:20:31;4.65;;;1.38;;
67092;SDS011;54011;50.772;7.730;2023-07-29T11:22:59;5.43;;;1.30;;
67092;SDS011;54011;50.772;7.730;2023-07-29T11:25:26;3.08;;;1.30;;
67092;SDS011;54011;50.772;7.730;2023-07-29T11:27:54;3.75;;;1.30;;
67092;SDS011;54011;50.772;7.730;2023-07-29T11:30:24;2.78;;;1.20;;
67092;SDS011;54011;50.772;7.730;2023-07-29T11:32:54;4.57;;;1.30;;
67092;SDS011;54011;50.772;7.730;2023-07-29T11:35:21;3.67;;;1.20;;
67092;SDS011;54011;50.772;7.730;2023-07-29T11:37:47;2.95;;;1.23;;
67092;SDS011;54011;50.772;7.730;2023-07-29T11:40:15;2.70;;;1.17;;
67092;SDS011;54011;50.772;7.730;2023-07-29T11:42:45;2.92;;;1.25;;
67092;SDS011;54011;50.772;7.730;2023-07-29T11:45:12;4.25;;;1.38;;
67092;SDS011;54011;50.772;7.730;2023-07-29T11:47:38;2.95;;;1.27;;
67092;SDS011;54011;50.772;7.730;2023-07-29T11:50:05;3.28;;;1.23;;
67092;SDS011;54011;50.772;7.730;2023-07-29T11:52:32;5.35;;;1.77;;
67092;SDS011;54011;50.772;7.730;2023-07-29T11:54:59;4.43;;;1.52;;
67092;SDS011;54011;50.772;7.730;2023-07-29T11:57:26;3.42;;;1.55;;
67092;SDS011;54011;50.772;7.730;2023-07-29T11:59:51;3.33;;;1.50;;
67092;SDS011;54011;50.772;7.730;2023-07-29T12:02:19;4.03;;;1.50;;
67092;SDS011;54011;50.772;7.730;2023-07-29T12:04:46;3.20;;;1.30;;
67092;SDS011;54011;50.772;7.730;2023-07-29T12:07:12;3.38;;;1.60;;
67092;SDS011;54011;50.772;7.730;2023-07-29T12:09:38;2.97;;;1.38;;
67092;SDS011;54011;50.772;7.730;2023-07-29T12:12:04;5.30;;;1.65;;
67092;SDS011;54011;50.772;7.730;2023-07-29T12:14:32;3.90;;;1.38;;
67092;SDS011;54011;50.772;7.730;2023-07-29T12:17:02;9.38;;;1.80;;
67092;SDS011;54011;50.772;7.730;2023-07-29T12:19:32;3.88;;;1.88;;
67092;SDS011;54011;50.772;7.730;2023-07-29T12:22:00;4.70;;;1.90;;
67092;SDS011;54011;50.772;7.730;2023-07-29T12:24:38;4.05;;;1.95;;
67092;SDS011;54011;50.772;7.730;2023-07-29T12:27:09;5.28;;;2.03;;
67092;SDS011;54011;50.772;7.730;2023-07-29T12:29:39;4.35;;;1.90;;
67092;SDS011;54011;50.772;7.730;2023-07-29T12:32:07;3.45;;;1.90;;
67092;SDS011;54011;50.772;7.730;2023-07-29T12:34:33;3.15;;;1.60;;
67092;SDS011;54011;50.772;7.730;2023-07-29T12:36:59;3.60;;;1.58;;
67092;SDS011;54011;50.772;7.730;2023-07-29T12:39:28;2.95;;;1.58;;
67092;SDS011;54011;50.772;7.730;2023-07-29T12:41:56;3.03;;;1.35;;
67092;SDS011;54011;50.772;7.730;2023-07-29T12:44:32;3.58;;;1.52;;
67092;SDS011;54011;50.772;7.730;2023-07-29T12:47:03;2.85;;;1.27;;
67092;SDS011;54011;50.772;7.730;2023-07-29T12:49:30;4.25;;;1.40;;
67092;SDS011;54011;50.772;7.730;2023-07-29T12:51:57;3.88;;;1.40;;
67092;SDS011;54011;50.772;7.730;2023-07-29T12:54:23;3.00;;;1.13;;
67092;SDS011;54011;50.772;7.730;2023-07-29T12:56:48;2.95;;;1.30;;
67092;SDS011;54011;50.772;7.730;2023-07-29T12:59:14;4.63;;;1.30;;
67092;SDS011;54011;50.772;7.730;2023-07-29T13:01:39;3.33;;;1.08;;
67092;SDS011;54011;50.772;7.730;2023-07-29T13:04:05;2.83;;;1.17;;
67092;SDS011;54011;50.772;7.730;2023-07-29T13:06:31;4.55;;;1.40;;
67092;SDS011;54011;50.772;7.730;2023-07-29T13:08:57;2.90;;;1.08;;
67092;SDS011;54011;50.772;7.730;2023-07-29T13:11:23;3.13;;;1.27;;
67092;SDS011;54011;50.772;7.730;2023-07-29T13:13:49;5.40;;;1.50;;
67092;SDS011;54011;50.772;7.730;2023-07-29T13:16:14;2.90;;;1.30;;
67092;SDS011;54011;50.772;7.730;2023-07-29T13:18:40;2.65;;;1.23;;
67092;SDS011;54011;50.772;7.730;2023-07-29T13:21:06;2.40;;;1.10;;
67092;SDS011;54011;50.772;7.730;2023-07-29T13:23:32;3.22;;;1.13;;
67092;SDS011;54011;50.772;7.730;2023-07-29T13:25:57;2.92;;;1.30;;
67092;SDS011;54011;50.772;7.730;2023-07-29T13:28:23;2.42;;;1.08;;
67092;SDS011;54011;50.772;7.730;2023-07-29T13:30:58;3.03;;;1.20;;
67092;SDS011;54011;50.772;7.730;2023-07-29T13:33:24;2.83;;;1.13;;
67092;SDS011;54011;50.772;7.730;2023-07-29T13:35:49;2.55;;;1.15;;
67092;SDS011;54011;50.772;7.730;2023-07-29T13:38:15;3.63;;;1.20;;
67092;SDS011;54011;50.772;7.730;2023-07-29T13:40:41;2.45;;;1.00;;
67092;SDS011;54011;50.772;7.730;2023-07-29T13:43:06;3.92;;;1.90;;
67092;SDS011;54011;50.772;7.730;2023-07-29T13:45:33;3.55;;;1.10;;
67092;SDS011;54011;50.772;7.730;2023-07-29T13:47:59;2.80;;;1.00;;
67092;SDS011;54011;50.772;7.730;2023-07-29T13:50:25;2.63;;;1.13;;
67092;SDS011;54011;50.772;7.730;2023-07-29T13:52:50;3.05;;;1.10;;
67092;SDS011;54011;50.772;7.730;2023-07-29T13:55:15;2.33;;;1.00;;
67092;SDS011;54011;50.772;7.730;2023-07-29T13:57:41;2.65;;;1.00;;
67092;SDS011;54011;50.772;7.730;2023-07-29T14:00:07;4.35;;;1.30;;
67092;SDS011;54011;50.772;7.730;2023-07-29T14:02:39;2.47;;;1.10;;
67092;SDS011;54011;50.772;7.730;2023-07-29T14:05:04;2.58;;;0.95;;
67092;SDS011;54011;50.772;7.730;2023-07-29T14:07:32;5.22;;;1.20;;
67092;SDS011;54011;50.772;7.730;2023-07-29T14:09:57;4.32;;;1.27;;
67092;SDS011;54011;50.772;7.730;2023-07-29T14:12:23;3.75;;;1.13;;
67092;SDS011;54011;50.772;7.730;2023-07-29T14:14:48;3.28;;;1.10;;
67092;SDS011;54011;50.772;7.730;2023-07-29T14:17:14;2.90;;;1.10;;
67092;SDS011;54011;50.772;7.730;2023-07-29T14:19:40;5.65;;;1.33;;
67092;SDS011;54011;50.772;7.730;2023-07-29T14:22:05;3.08;;;1.27;;
67092;SDS011;54011;50.772;7.730;2023-07-29T14:24:31;2.78;;;1.20;;
67092;SDS011;54011;50.772;7.730;2023-07-29T14:26:57;3.70;;;1.15;;
67092;SDS011;54011;50.772;7.730;2023-07-29T14:29:22;3.05;;;1.30;;
67092;SDS011;54011;50.772;7.730;2023-07-29T14:31:47;3.45;;;1.20;;
67092;SDS011;54011;50.772;7.730;2023-07-29T14:34:14;2.70;;;1.30;;
67092;SDS011;54011;50.772;7.730;2023-07-29T14:36:40;2.85;;;1.40;;
67092;SDS011;54011;50.772;7.730;2023-07-29T14:39:05;4.10;;;1.58;;
67092;SDS011;54011;50.772;7.730;2023-07-29T14:41:31;2.58;;;1.20;;
67092;SDS011;54011;50.772;7.730;2023-07-29T14:43:56;2.40;;;1.02;;
67092;SDS011;54011;50.772;7.730;2023-07-29T14:46:21;2.85;;;1.00;;
67092;SDS011;54011;50.772;7.730;2023-07-29T14:48:47;4.03;;;1.20;;
67092;SDS011;54011;50.772;7.730;2023-07-29T14:51:13;6.15;;;1.70;;
67092;SDS011;54011;50.772;7.730;2023-07-29T14:53:39;2.97;;;1.27;;
67092;SDS011;54011;50.772;7.730;2023-07-29T14:56:05;6.60;;;1.30;;